createdAt,value
2024-03-12T00:00:13.595Z,641.00
2024-03-12T00:01:13.758Z,639.00
2024-03-12T00:02:13.606Z,638.00
2024-03-12T00:03:13.613Z,636.00
2024-03-12T00:04:13.679Z,638.00
2024-03-12T00:05:13.645Z,634.00
2024-03-12T00:06:13.632Z,633.00
2024-03-12T00:07:13.667Z,634.00
2024-03-12T00:08:13.634Z,632.00
2024-03-12T00:09:13.628Z,636.00
2024-03-12T00:10:13.667Z,634.00
2024-03-12T00:11:13.647Z,635.00
2024-03-12T00:12:13.625Z,632.00
2024-03-12T00:13:13.666Z,635.00
2024-03-12T00:14:13.634Z,633.00
2024-03-12T00:15:13.625Z,629.00
2024-03-12T00:16:13.658Z,634.00
2024-03-12T00:17:13.662Z,631.00
2024-03-12T00:18:13.663Z,631.00
2024-03-12T00:19:13.737Z,627.00
2024-03-12T00:20:13.633Z,628.00
2024-03-12T00:21:13.641Z,630.00
2024-03-12T00:22:13.714Z,630.00
2024-03-12T00:23:13.650Z,628.00
2024-03-12T00:24:13.626Z,629.00
2024-03-12T00:25:13.621Z,625.00
2024-03-12T00:26:13.620Z,625.00
2024-03-12T00:27:13.625Z,627.00
2024-03-12T00:28:13.694Z,623.00
2024-03-12T00:29:13.659Z,623.00
2024-03-12T00:30:13.619Z,623.00
2024-03-12T00:31:13.644Z,621.00
2024-03-12T00:32:13.629Z,622.00
2024-03-12T00:33:13.877Z,618.00
2024-03-12T00:34:13.644Z,622.00
2024-03-12T00:35:13.608Z,621.00
2024-03-12T00:36:13.610Z,621.00
2024-03-12T00:37:13.655Z,619.00
2024-03-12T00:38:13.611Z,619.00
2024-03-12T00:39:13.613Z,618.00
2024-03-12T00:40:13.712Z,619.00
2024-03-12T00:41:13.603Z,622.00
2024-03-12T00:42:13.621Z,622.00
2024-03-12T00:43:13.758Z,618.00
2024-03-12T00:44:13.722Z,620.00
2024-03-12T00:45:13.713Z,619.00
2024-03-12T00:46:13.865Z,619.00
2024-03-12T00:47:13.777Z,619.00
2024-03-12T00:48:13.906Z,619.00
2024-03-12T00:49:13.881Z,621.00
2024-03-12T00:50:13.899Z,620.00
2024-03-12T00:51:13.885Z,620.00
2024-03-12T00:52:13.866Z,618.00
2024-03-12T00:53:13.873Z,620.00
2024-03-12T00:54:13.870Z,619.00
2024-03-12T00:55:13.880Z,621.00
2024-03-12T00:56:13.874Z,620.00
2024-03-12T00:57:13.856Z,622.00
2024-03-12T00:58:14.015Z,620.00
2024-03-12T00:59:13.857Z,620.00
2024-03-12T01:00:13.840Z,624.00
2024-03-12T01:01:13.895Z,622.00
2024-03-12T01:02:13.851Z,622.00
2024-03-12T01:03:13.838Z,623.00
2024-03-12T01:04:13.875Z,622.00
2024-03-12T01:05:13.839Z,624.00
2024-03-12T01:06:13.824Z,620.00
2024-03-12T01:07:13.836Z,624.00
2024-03-12T01:08:13.937Z,625.00
2024-03-12T01:09:13.873Z,625.00
2024-03-12T01:10:13.952Z,626.00
2024-03-12T01:11:13.990Z,627.00
2024-03-12T01:12:13.989Z,626.00
2024-03-12T01:13:14.059Z,625.00
2024-03-12T01:14:14.063Z,628.00
2024-03-12T01:15:14.074Z,629.00
2024-03-12T01:16:14.222Z,626.00
2024-03-12T01:17:14.143Z,630.00
2024-03-12T01:18:14.207Z,628.00
2024-03-12T01:19:14.213Z,630.00
2024-03-12T01:20:14.254Z,630.00
2024-03-12T01:21:14.305Z,628.00
2024-03-12T01:22:14.319Z,630.00
2024-03-12T01:23:14.329Z,630.00
2024-03-12T01:24:14.383Z,630.00
2024-03-12T01:25:14.434Z,633.00
2024-03-12T01:26:14.418Z,631.00
2024-03-12T01:27:14.459Z,628.00
2024-03-12T01:28:14.517Z,632.00
2024-03-12T01:29:14.535Z,633.00
2024-03-12T01:30:14.545Z,632.00
2024-03-12T01:31:14.570Z,633.00
2024-03-12T01:32:14.530Z,634.00
2024-03-12T01:33:14.564Z,634.00
2024-03-12T01:34:14.646Z,634.00
2024-03-12T01:35:14.546Z,639.00
2024-03-12T01:36:14.562Z,635.00
2024-03-12T01:37:14.624Z,634.00
2024-03-12T01:38:14.551Z,635.00
2024-03-12T01:39:14.548Z,638.00
2024-03-12T01:40:14.577Z,636.00
2024-03-12T01:41:14.579Z,638.00
2024-03-12T01:42:14.578Z,640.00
2024-03-12T01:43:14.836Z,640.00
2024-03-12T01:44:14.582Z,641.00
2024-03-12T01:45:14.579Z,640.00
2024-03-12T01:46:14.575Z,639.00
2024-03-12T01:47:14.555Z,639.00
2024-03-12T01:48:14.571Z,640.00
2024-03-12T01:49:14.564Z,641.00
2024-03-12T01:50:14.573Z,642.00
2024-03-12T01:51:14.551Z,644.00
2024-03-12T01:52:14.563Z,643.00
2024-03-12T01:53:14.587Z,646.00
2024-03-12T01:54:14.562Z,644.00
2024-03-12T01:55:14.561Z,644.00
2024-03-12T01:56:14.568Z,651.00
2024-03-12T01:57:14.546Z,649.00
2024-03-12T01:58:14.620Z,650.00
2024-03-12T01:59:14.553Z,648.00
2024-03-12T02:00:14.752Z,649.00
2024-03-12T02:01:14.560Z,653.00
2024-03-12T02:02:14.540Z,656.00
2024-03-12T02:03:14.547Z,654.00
2024-03-12T02:04:14.534Z,654.00
2024-03-12T02:05:14.551Z,654.00
2024-03-12T02:06:14.552Z,657.00
2024-03-12T02:07:14.633Z,659.00
2024-03-12T02:08:14.599Z,654.00
2024-03-12T02:09:14.646Z,657.00
2024-03-12T02:10:14.668Z,658.00
2024-03-12T02:11:14.718Z,661.00
2024-03-12T02:12:14.704Z,662.00
2024-03-12T02:13:14.797Z,661.00
2024-03-12T02:14:14.756Z,657.00
2024-03-12T02:15:14.776Z,660.00
2024-03-12T02:16:14.869Z,662.00
2024-03-12T02:17:14.837Z,660.00
2024-03-12T02:18:14.922Z,661.00
2024-03-12T02:19:14.882Z,660.00
2024-03-12T02:20:14.913Z,661.00
2024-03-12T02:21:14.941Z,660.00
2024-03-12T02:22:14.975Z,659.00
2024-03-12T02:23:15.026Z,657.00
2024-03-12T02:24:15.045Z,661.00
2024-03-12T02:25:15.094Z,660.00
2024-03-12T02:26:15.127Z,662.00
2024-03-12T02:27:15.167Z,664.00
2024-03-12T02:28:15.234Z,663.00
2024-03-12T02:29:15.254Z,663.00
2024-03-12T02:30:15.331Z,664.00
2024-03-12T02:31:15.377Z,662.00
2024-03-12T02:32:15.333Z,667.00
2024-03-12T02:33:15.474Z,663.00
2024-03-12T02:34:15.396Z,665.00
2024-03-12T02:35:15.419Z,665.00
2024-03-12T02:36:15.478Z,664.00
2024-03-12T02:37:15.494Z,664.00
2024-03-12T02:38:15.537Z,665.00
2024-03-12T02:39:15.723Z,663.00
2024-03-12T02:40:16.781Z,664.00
2024-03-12T02:41:15.662Z,666.00
2024-03-12T02:42:15.679Z,664.00
2024-03-12T02:43:15.764Z,665.00
2024-03-12T02:44:15.765Z,669.00
2024-03-12T02:45:16.901Z,666.00
2024-03-12T02:46:15.923Z,665.00
2024-03-12T02:47:15.895Z,673.00
2024-03-12T02:48:15.936Z,667.00
2024-03-12T02:49:15.982Z,664.00
2024-03-12T02:50:16.028Z,676.00
2024-03-12T02:51:16.041Z,676.00
2024-03-12T02:52:16.087Z,666.00
2024-03-12T02:53:16.154Z,670.00
2024-03-12T02:54:16.177Z,677.00
2024-03-12T02:55:16.302Z,675.00
2024-03-12T02:56:16.259Z,671.00
2024-03-12T02:57:16.337Z,677.00
2024-03-12T02:58:16.380Z,669.00
2024-03-12T02:59:16.385Z,676.00
2024-03-12T03:00:16.717Z,677.00
2024-03-12T03:01:16.530Z,676.00
2024-03-12T03:02:16.502Z,669.00
2024-03-12T03:03:16.547Z,675.00
2024-03-12T03:04:16.594Z,677.00
2024-03-12T03:05:16.682Z,678.00
2024-03-12T03:06:16.667Z,667.00
2024-03-12T03:07:16.707Z,676.00
2024-03-12T03:08:16.750Z,670.00
2024-03-12T03:09:16.770Z,678.00
2024-03-12T03:10:16.888Z,682.00
2024-03-12T03:11:16.873Z,676.00
2024-03-12T03:12:16.880Z,683.00
2024-03-12T03:13:16.940Z,682.00
2024-03-12T03:14:16.958Z,681.00
2024-03-12T03:15:17.000Z,673.00
2024-03-12T03:16:17.021Z,682.00
2024-03-12T03:17:17.063Z,673.00
2024-03-12T03:18:17.192Z,684.00
2024-03-12T03:19:17.138Z,675.00
2024-03-12T03:20:17.249Z,677.00
2024-03-12T03:21:17.199Z,676.00
2024-03-12T03:22:17.310Z,658.00
2024-03-12T03:23:17.229Z,650.00
2024-03-12T03:24:17.247Z,630.00
2024-03-12T03:25:17.337Z,621.00
2024-03-12T03:26:17.255Z,608.00
2024-03-12T03:27:17.298Z,599.00
2024-03-12T03:28:17.302Z,600.00
2024-03-12T03:29:17.346Z,600.00
2024-03-12T03:30:17.384Z,598.00
2024-03-12T03:31:17.475Z,601.00
2024-03-12T03:32:17.519Z,597.00
2024-03-12T03:33:17.601Z,600.00
2024-03-12T03:34:17.782Z,600.00
2024-03-12T03:35:17.721Z,600.00
2024-03-12T03:36:17.804Z,600.00
2024-03-12T03:37:17.885Z,601.00
2024-03-12T03:38:17.935Z,602.00
2024-03-12T03:39:18.023Z,600.00
2024-03-12T03:40:18.090Z,600.00
2024-03-12T03:41:18.098Z,600.00
2024-03-12T03:42:18.113Z,600.00
2024-03-12T03:43:18.140Z,600.00
2024-03-12T03:44:18.175Z,600.00
2024-03-12T03:45:18.184Z,600.00
2024-03-12T03:46:18.190Z,599.00
2024-03-12T03:47:18.242Z,600.00
2024-03-12T03:48:18.253Z,599.00
2024-03-12T03:49:18.287Z,598.00
2024-03-12T03:50:18.320Z,599.00
2024-03-12T03:51:18.384Z,601.00
2024-03-12T03:52:18.393Z,600.00
2024-03-12T03:53:18.429Z,605.00
2024-03-12T03:54:18.482Z,597.00
2024-03-12T03:55:18.595Z,601.00
2024-03-12T03:56:18.553Z,600.00
2024-03-12T03:57:18.601Z,598.00
2024-03-12T03:58:18.645Z,600.00
2024-03-12T03:59:18.708Z,601.00
2024-03-12T04:00:18.743Z,601.00
2024-03-12T04:01:18.846Z,600.00
2024-03-12T04:02:18.849Z,601.00
2024-03-12T04:03:18.918Z,600.00
2024-03-12T04:04:18.988Z,603.00
2024-03-12T04:05:19.026Z,599.00
2024-03-12T04:06:19.095Z,603.00
2024-03-12T04:07:19.171Z,602.00
2024-03-12T04:08:19.257Z,600.00
2024-03-12T04:09:19.303Z,602.00
2024-03-12T04:10:19.583Z,600.00
2024-03-12T04:11:19.500Z,600.00
2024-03-12T04:12:19.552Z,602.00
2024-03-12T04:13:19.636Z,601.00
2024-03-12T04:14:19.749Z,601.00
2024-03-12T04:15:19.733Z,600.00
2024-03-12T04:16:19.819Z,602.00
2024-03-12T04:17:19.884Z,604.00
2024-03-12T04:18:20.139Z,605.00
2024-03-12T04:19:20.090Z,605.00
2024-03-12T04:20:20.130Z,603.00
2024-03-12T04:21:20.199Z,603.00
2024-03-12T04:22:20.292Z,607.00
2024-03-12T04:23:20.367Z,608.00
2024-03-12T04:24:20.451Z,605.00
2024-03-12T04:25:20.529Z,613.00
2024-03-12T04:26:20.623Z,610.00
2024-03-12T04:27:20.736Z,610.00
2024-03-12T04:28:20.891Z,615.00
2024-03-12T04:29:20.882Z,612.00
2024-03-12T04:30:20.957Z,622.00
2024-03-12T04:31:21.035Z,620.00
2024-03-12T04:32:21.136Z,618.00
2024-03-12T04:33:21.237Z,617.00
2024-03-12T04:34:21.290Z,619.00
2024-03-12T04:35:28.584Z,600.00
2024-03-12T04:36:28.626Z,600.00
2024-03-12T04:37:28.602Z,600.00
2024-03-12T04:38:28.601Z,600.00
2024-03-12T04:39:28.644Z,600.00
2024-03-12T04:40:28.684Z,602.00
2024-03-12T04:41:28.616Z,606.00
2024-03-12T04:42:28.700Z,608.00
2024-03-12T04:43:28.640Z,608.00
2024-03-12T04:44:28.656Z,607.00
2024-03-12T04:45:28.684Z,613.00
2024-03-12T04:46:28.662Z,612.00
2024-03-12T04:47:28.739Z,616.00
2024-03-12T04:48:28.790Z,619.00
2024-03-12T04:49:28.699Z,623.00
2024-03-12T04:50:28.698Z,623.00
2024-03-12T04:51:28.718Z,626.00
2024-03-12T04:52:28.723Z,629.00
2024-03-12T04:53:28.725Z,629.00
2024-03-12T04:54:28.764Z,632.00
2024-03-12T04:55:28.735Z,629.00
2024-03-12T04:56:28.738Z,632.00
2024-03-12T04:57:28.766Z,631.00
2024-03-12T04:58:28.749Z,633.00
2024-03-12T04:59:28.778Z,633.00
2024-03-12T05:00:32.392Z,629.00
2024-03-12T05:01:28.855Z,626.00
2024-03-12T05:02:28.787Z,632.00
2024-03-12T05:03:28.812Z,631.00
2024-03-12T05:04:28.823Z,629.00
2024-03-12T05:05:28.795Z,635.00
2024-03-12T05:06:28.797Z,633.00
2024-03-12T05:07:28.788Z,635.00
2024-03-12T05:08:28.840Z,630.00
2024-03-12T05:09:28.824Z,626.00
2024-03-12T05:10:28.804Z,622.00
2024-03-12T05:11:28.828Z,623.00
2024-03-12T05:12:28.831Z,614.00
2024-03-12T05:13:28.826Z,612.00
2024-03-12T05:14:28.838Z,612.00
2024-03-12T05:15:28.934Z,606.00
2024-03-12T05:16:28.869Z,605.00
2024-03-12T05:17:28.870Z,604.00
2024-03-12T05:18:28.899Z,597.00
2024-03-12T05:19:28.866Z,599.00
2024-03-12T05:20:28.923Z,599.00
2024-03-12T05:21:31.471Z,596.00
2024-03-12T05:22:28.891Z,589.00
2024-03-12T05:23:28.890Z,585.00
2024-03-12T05:24:28.921Z,600.00
2024-03-12T05:25:28.898Z,605.00
2024-03-12T05:26:28.906Z,602.00
2024-03-12T05:27:28.936Z,604.00
2024-03-12T05:28:28.931Z,600.00
2024-03-12T05:29:28.925Z,602.00
2024-03-12T05:30:28.945Z,600.00
2024-03-12T05:31:28.936Z,602.00
2024-03-12T05:32:28.952Z,607.00
2024-03-12T05:33:28.961Z,603.00
2024-03-12T05:34:28.966Z,605.00
2024-03-12T05:35:28.960Z,605.00
2024-03-12T05:36:28.966Z,606.00
2024-03-12T05:37:28.981Z,607.00
2024-03-12T05:38:28.960Z,605.00
2024-03-12T05:39:29.032Z,607.00
2024-03-12T05:40:28.968Z,609.00
2024-03-12T05:41:28.974Z,611.00
2024-03-12T05:42:28.993Z,613.00
2024-03-12T05:43:28.987Z,612.00
2024-03-12T05:44:28.987Z,615.00
2024-03-12T05:45:29.083Z,615.00
2024-03-12T05:46:29.091Z,616.00
2024-03-12T05:47:29.029Z,618.00
2024-03-12T05:48:29.026Z,615.00
2024-03-12T05:49:29.038Z,617.00
2024-03-12T05:50:29.039Z,620.00
2024-03-12T05:51:29.096Z,623.00
2024-03-12T05:52:29.176Z,615.00
2024-03-12T05:53:29.055Z,618.00
2024-03-12T05:54:29.080Z,624.00
2024-03-12T05:55:29.062Z,630.00
2024-03-12T05:56:29.068Z,642.00
2024-03-12T05:57:29.094Z,655.00
2024-03-12T05:58:29.079Z,661.00
2024-03-12T05:59:29.107Z,666.00
2024-03-12T06:00:29.223Z,690.00
2024-03-12T06:01:30.173Z,694.00
2024-03-12T06:02:29.148Z,691.00
2024-03-12T06:03:29.150Z,691.00
2024-03-12T06:04:29.142Z,693.00
2024-03-12T06:05:29.161Z,698.00
2024-03-12T06:06:29.200Z,701.00
2024-03-12T06:07:29.208Z,705.00
2024-03-12T06:08:29.217Z,693.00
2024-03-12T06:09:29.196Z,691.00
2024-03-12T06:10:29.186Z,669.00
2024-03-12T06:11:29.261Z,672.00
2024-03-12T06:12:29.202Z,659.00
2024-03-12T06:13:29.177Z,656.00
2024-03-12T06:14:29.195Z,644.00
2024-03-12T06:15:29.214Z,642.00
2024-03-12T06:16:29.188Z,636.00
2024-03-12T06:17:29.191Z,639.00
2024-03-12T06:18:29.341Z,634.00
2024-03-12T06:19:29.217Z,628.00
2024-03-12T06:20:29.195Z,627.00
2024-03-12T06:21:29.235Z,627.00
2024-03-12T06:22:29.209Z,620.00
2024-03-12T06:23:29.215Z,624.00
2024-03-12T06:24:29.282Z,623.00
2024-03-12T06:25:29.252Z,620.00
2024-03-12T06:26:29.253Z,616.00
2024-03-12T06:27:29.284Z,615.00
2024-03-12T06:28:29.320Z,617.00
2024-03-12T06:29:29.253Z,618.00
2024-03-12T06:30:29.322Z,621.00
2024-03-12T06:31:29.271Z,619.00
2024-03-12T06:32:29.315Z,625.00
2024-03-12T06:33:29.331Z,637.00
2024-03-12T06:34:29.342Z,657.00
2024-03-12T06:35:29.343Z,659.00
2024-03-12T06:36:29.355Z,667.00
2024-03-12T06:37:29.328Z,718.00
2024-03-12T06:38:29.327Z,815.00
2024-03-12T06:39:29.377Z,978.00
2024-03-12T06:40:29.355Z,1053.00
2024-03-12T06:41:29.342Z,1126.00
2024-03-12T06:42:29.359Z,1185.00
2024-03-12T06:43:29.333Z,1254.00
2024-03-12T06:44:29.323Z,1304.00
2024-03-12T06:45:29.416Z,1306.00
2024-03-12T06:46:29.326Z,1321.00
2024-03-12T06:47:29.331Z,1365.00
2024-03-12T06:48:29.324Z,1434.00
2024-03-12T06:49:29.306Z,1546.00
2024-03-12T06:50:29.316Z,1593.00
2024-03-12T06:51:29.343Z,1631.00
2024-03-12T06:52:29.296Z,1670.00
2024-03-12T06:53:29.292Z,1689.00
2024-03-12T06:54:29.355Z,1710.00
2024-03-12T06:55:29.365Z,1731.00
2024-03-12T06:56:29.324Z,1802.00
2024-03-12T06:57:29.326Z,1902.00
2024-03-12T06:58:29.383Z,1930.00
2024-03-12T06:59:29.502Z,1959.00
2024-03-12T07:00:29.329Z,2002.00
2024-03-12T07:01:29.343Z,2043.00
2024-03-12T07:02:29.297Z,2112.00
2024-03-12T07:03:29.345Z,2151.00
2024-03-12T07:04:29.313Z,2182.00
2024-03-12T07:05:29.276Z,2231.00
2024-03-12T07:06:29.300Z,2257.00
2024-03-12T07:07:29.258Z,2292.00
2024-03-12T07:08:29.259Z,2370.00
2024-03-12T07:09:29.252Z,2424.00
2024-03-12T07:10:29.275Z,2499.00
2024-03-12T07:11:29.294Z,2544.00
2024-03-12T07:12:29.281Z,2607.00
2024-03-12T07:13:29.279Z,2648.00
2024-03-12T07:14:29.362Z,2684.00
2024-03-12T07:15:29.501Z,2709.00
2024-03-12T07:16:29.478Z,2752.00
2024-03-12T07:17:31.629Z,2788.00
2024-03-12T07:18:29.615Z,2805.00
2024-03-12T07:19:29.648Z,2831.00
2024-03-12T07:20:29.687Z,2852.00
2024-03-12T07:21:29.702Z,2853.00
2024-03-12T07:22:29.670Z,2858.00
2024-03-12T07:23:29.659Z,2875.00
2024-03-12T07:24:29.686Z,2901.00
2024-03-12T07:25:29.655Z,2942.00
2024-03-12T07:26:29.640Z,2961.00
2024-03-12T07:27:29.684Z,2955.00
2024-03-12T07:28:29.670Z,2969.00
2024-03-12T07:29:29.616Z,2960.00
2024-03-12T07:30:29.656Z,2963.00
2024-03-12T07:31:29.587Z,2973.00
2024-03-12T07:32:29.677Z,2971.00
2024-03-12T07:33:29.701Z,2998.00
2024-03-12T07:34:29.770Z,3006.00
2024-03-12T07:35:29.738Z,3001.00
2024-03-12T07:36:29.788Z,3009.00
2024-03-12T07:37:29.788Z,3013.00
2024-03-12T07:38:29.834Z,2997.00
2024-03-12T07:39:29.891Z,2972.00
2024-03-12T07:40:29.908Z,2951.00
2024-03-12T07:41:29.884Z,2938.00
2024-03-12T07:42:29.909Z,2904.00
2024-03-12T07:43:29.859Z,2883.00
2024-03-12T07:44:29.983Z,2861.00
2024-03-12T07:45:29.886Z,2837.00
2024-03-12T07:46:29.839Z,2807.00
2024-03-12T07:47:29.911Z,2774.00
2024-03-12T07:48:29.842Z,2730.00
2024-03-12T07:49:29.820Z,2703.00
2024-03-12T07:50:29.978Z,2682.00
2024-03-12T07:51:29.844Z,2650.00
2024-03-12T07:52:29.785Z,2610.00
2024-03-12T07:53:29.772Z,2602.00
2024-03-12T07:54:29.777Z,2583.00
2024-03-12T07:55:29.750Z,2568.00
2024-03-12T07:56:29.766Z,2543.00
2024-03-12T07:57:29.755Z,2529.00
2024-03-12T07:58:29.746Z,2497.00
2024-03-12T07:59:29.792Z,2467.00
2024-03-12T08:00:29.767Z,2447.00
2024-03-12T08:01:29.714Z,2420.00
2024-03-12T08:02:29.713Z,2397.00
2024-03-12T08:03:29.970Z,2376.00
2024-03-12T08:04:29.824Z,2335.00
2024-03-12T08:05:33.018Z,2326.00
2024-03-12T08:06:30.970Z,2305.00
2024-03-12T08:07:29.866Z,2272.00
2024-03-12T08:08:29.849Z,2262.00
2024-03-12T08:09:30.018Z,2238.00
2024-03-12T08:10:29.838Z,2206.00
2024-03-12T08:11:29.877Z,2189.00
2024-03-12T08:12:29.859Z,2165.00
2024-03-12T08:13:29.864Z,2151.00
2024-03-12T08:14:29.830Z,2120.00
2024-03-12T08:15:29.895Z,2099.00
2024-03-12T08:16:29.941Z,2059.00
2024-03-12T08:17:30.279Z,2037.00
2024-03-12T08:18:30.122Z,2026.00
2024-03-12T08:19:30.116Z,1992.00
2024-03-12T08:20:30.158Z,1976.00
2024-03-12T08:21:30.306Z,1951.00
2024-03-12T08:22:30.291Z,1934.00
2024-03-12T08:23:30.379Z,1862.00
2024-03-12T08:24:30.427Z,1803.00
2024-03-12T08:25:33.226Z,1729.00
2024-03-12T08:26:31.483Z,1674.00
2024-03-12T08:27:30.471Z,1605.00
2024-03-12T08:28:30.435Z,1544.00
2024-03-12T08:29:30.436Z,1481.00
2024-03-12T08:30:33.397Z,1422.00
2024-03-12T08:31:35.671Z,1364.00
2024-03-12T08:32:31.779Z,1322.00
2024-03-12T08:33:30.475Z,1272.00
2024-03-12T08:34:30.431Z,1228.00
2024-03-12T08:35:30.405Z,1202.00
2024-03-12T08:36:30.472Z,1184.00
2024-03-12T08:37:30.409Z,1175.00
2024-03-12T08:38:30.420Z,1168.00
2024-03-12T08:39:30.416Z,1172.00
2024-03-12T08:40:30.477Z,1143.00
2024-03-12T08:41:30.406Z,1074.00
2024-03-12T08:42:30.485Z,1000.00
2024-03-12T08:43:30.463Z,920.00
2024-03-12T08:44:30.466Z,852.00
2024-03-12T08:45:30.442Z,804.00
2024-03-12T08:46:30.422Z,752.00
2024-03-12T08:47:30.453Z,701.00
2024-03-12T08:48:30.479Z,664.00
2024-03-12T08:49:30.429Z,649.00
2024-03-12T08:50:30.476Z,633.00
2024-03-12T08:51:30.536Z,611.00
2024-03-12T08:52:30.441Z,600.00
2024-03-12T08:53:30.418Z,600.00
2024-03-12T08:54:30.509Z,599.00
2024-03-12T08:55:30.506Z,600.00
2024-03-12T08:56:30.445Z,600.00
2024-03-12T08:57:30.470Z,597.00
2024-03-12T08:58:30.447Z,602.00
2024-03-12T08:59:30.465Z,601.00
2024-03-12T09:00:30.683Z,600.00
2024-03-12T09:01:30.545Z,600.00
2024-03-12T09:02:30.483Z,600.00
2024-03-12T09:03:30.570Z,600.00
2024-03-12T09:04:30.565Z,600.00
2024-03-12T09:05:30.532Z,600.00
2024-03-12T09:06:30.613Z,598.00
2024-03-12T09:07:30.605Z,601.00
2024-03-12T09:08:30.657Z,605.00
2024-03-12T09:09:30.747Z,605.00
2024-03-12T09:10:30.760Z,603.00
2024-03-12T09:11:30.868Z,603.00
2024-03-12T09:12:30.875Z,605.00
2024-03-12T09:13:30.741Z,606.00
2024-03-12T09:14:30.747Z,605.00
2024-03-12T09:15:30.769Z,602.00
2024-03-12T09:16:30.762Z,604.00
2024-03-12T09:17:30.773Z,609.00
2024-03-12T09:18:30.806Z,602.00
2024-03-12T09:19:30.772Z,600.00
2024-03-12T09:20:30.810Z,611.00
2024-03-12T09:21:30.814Z,606.00
2024-03-12T09:22:30.801Z,601.00
2024-03-12T09:23:31.594Z,605.00
2024-03-12T09:24:30.850Z,615.00
2024-03-12T09:25:30.792Z,629.00
2024-03-12T09:26:31.108Z,641.00
2024-03-12T09:27:30.829Z,649.00
2024-03-12T09:28:30.798Z,662.00
2024-03-12T09:29:30.827Z,682.00
2024-03-12T09:30:30.878Z,683.00
2024-03-12T09:31:30.817Z,689.00
2024-03-12T09:32:30.831Z,700.00
2024-03-12T09:33:30.814Z,721.00
2024-03-12T09:34:30.797Z,727.00
2024-03-12T09:35:30.802Z,723.00
2024-03-12T09:36:30.818Z,707.00
2024-03-12T09:37:30.793Z,699.00
2024-03-12T09:38:30.868Z,680.00
2024-03-12T09:39:30.965Z,667.00
2024-03-12T09:40:31.045Z,658.00
2024-03-12T09:41:30.962Z,654.00
2024-03-12T09:42:31.014Z,647.00
2024-03-12T09:43:30.961Z,655.00
2024-03-12T09:44:30.962Z,654.00
2024-03-12T09:45:31.071Z,651.00
2024-03-12T09:46:30.933Z,644.00
2024-03-12T09:47:30.949Z,647.00
2024-03-12T09:48:30.969Z,639.00
2024-03-12T09:49:30.965Z,644.00
2024-03-12T09:50:30.939Z,644.00
2024-03-12T09:51:30.947Z,641.00
2024-03-12T09:52:30.958Z,659.00
2024-03-12T09:53:30.933Z,690.00
2024-03-12T09:54:30.949Z,732.00
2024-03-12T09:55:30.918Z,783.00
2024-03-12T09:56:30.898Z,837.00
2024-03-12T09:57:30.933Z,894.00
2024-03-12T09:58:30.898Z,951.00
2024-03-12T09:59:31.948Z,1020.00
2024-03-12T10:00:30.949Z,1089.00
2024-03-12T10:01:30.853Z,1146.00
2024-03-12T10:02:30.888Z,1190.00
2024-03-12T10:03:30.920Z,1192.00
2024-03-12T10:04:30.841Z,1205.00
2024-03-12T10:05:30.824Z,1240.00
2024-03-12T10:06:30.941Z,1311.00
2024-03-12T10:07:30.810Z,1198.00
2024-03-12T10:08:30.779Z,1233.00
2024-03-12T10:09:30.813Z,1298.00
2024-03-12T10:10:30.745Z,1512.00
2024-03-12T10:11:30.736Z,1744.00
2024-03-12T10:12:30.712Z,1780.00
2024-03-12T10:13:30.725Z,1812.00
2024-03-12T10:14:30.677Z,1833.00
2024-03-12T10:15:30.682Z,1834.00
2024-03-12T10:16:30.673Z,1839.00
2024-03-12T10:17:30.629Z,1857.00
2024-03-12T10:18:30.673Z,1881.00
2024-03-12T10:19:30.598Z,1909.00
2024-03-12T10:20:30.584Z,1916.00
2024-03-12T10:21:30.638Z,2001.00
2024-03-12T10:22:30.544Z,2249.00
2024-03-12T10:23:30.525Z,2227.00
2024-03-12T10:24:30.633Z,2192.00
2024-03-12T10:25:30.628Z,2183.00
2024-03-12T10:26:30.691Z,2164.00
2024-03-12T10:27:30.773Z,2154.00
2024-03-12T10:28:30.812Z,2126.00
2024-03-12T10:29:30.859Z,2100.00
2024-03-12T10:30:30.890Z,2077.00
2024-03-12T10:31:30.922Z,2066.00
2024-03-12T10:32:31.119Z,2049.00
2024-03-12T10:33:31.060Z,2022.00
2024-03-12T10:34:31.007Z,2005.00
2024-03-12T10:35:30.976Z,1986.00
2024-03-12T10:36:31.015Z,1989.00
2024-03-12T10:37:30.995Z,1966.00
2024-03-12T10:38:30.933Z,1941.00
2024-03-12T10:39:30.978Z,1922.00
2024-03-12T10:40:31.017Z,1916.00
2024-03-12T10:41:30.905Z,1890.00
2024-03-12T10:42:30.918Z,1870.00
2024-03-12T10:43:30.884Z,1879.00
2024-03-12T10:44:30.882Z,1871.00
2024-03-12T10:45:31.020Z,1887.00
2024-03-12T10:46:30.976Z,1898.00
2024-03-12T10:47:31.062Z,1921.00
2024-03-12T10:48:31.066Z,1930.00
2024-03-12T10:49:31.098Z,1942.00
2024-03-12T10:50:31.140Z,1955.00
2024-03-12T10:51:31.175Z,1967.00
2024-03-12T10:52:31.157Z,1988.00
2024-03-12T10:53:32.480Z,2005.00
2024-03-12T10:54:34.416Z,2013.00
2024-03-12T10:55:32.243Z,2014.00
2024-03-12T10:56:31.200Z,2019.00
2024-03-12T10:57:31.195Z,2032.00
2024-03-12T10:58:31.164Z,2063.00
2024-03-12T10:59:31.138Z,2113.00
2024-03-12T11:00:31.164Z,2139.00
2024-03-12T11:01:31.296Z,2156.00
2024-03-12T11:02:31.107Z,2162.00
2024-03-12T11:03:31.126Z,2183.00
2024-03-12T11:04:31.070Z,2194.00
2024-03-12T11:05:31.031Z,2212.00
2024-03-12T11:06:31.136Z,2221.00
2024-03-12T11:07:31.007Z,2232.00
2024-03-12T11:08:31.006Z,2239.00
2024-03-12T11:09:31.043Z,2238.00
2024-03-12T11:10:31.007Z,2229.00
2024-03-12T11:11:31.034Z,2236.00
2024-03-12T11:12:30.985Z,2247.00
2024-03-12T11:13:30.960Z,2254.00
2024-03-12T11:14:30.988Z,2260.00
2024-03-12T11:15:31.032Z,2263.00
2024-03-12T11:16:31.039Z,2274.00
2024-03-12T11:17:31.051Z,2276.00
2024-03-12T11:18:31.096Z,2276.00
2024-03-12T11:19:31.153Z,2286.00
2024-03-12T11:20:31.118Z,2282.00
2024-03-12T11:21:31.111Z,2291.00
2024-03-12T11:22:31.152Z,2291.00
2024-03-12T11:23:31.170Z,2287.00
2024-03-12T11:24:31.594Z,2287.00
2024-03-12T11:25:31.139Z,2289.00
2024-03-12T11:27:31.175Z,2306.00
2024-03-12T11:28:31.105Z,2288.00
2024-03-12T11:29:31.083Z,2294.00
2024-03-12T11:30:31.103Z,2303.00
2024-03-12T11:31:31.078Z,2322.00
2024-03-12T11:32:31.078Z,2345.00
2024-03-12T11:33:31.058Z,2345.00
2024-03-12T11:34:31.038Z,2345.00
2024-03-12T11:35:31.003Z,2351.00
2024-03-12T11:36:31.092Z,2361.00
2024-03-12T11:37:30.994Z,2374.00
2024-03-12T11:38:31.136Z,2399.00
2024-03-12T11:39:31.171Z,2392.00
2024-03-12T11:40:30.957Z,2392.00
2024-03-12T11:41:30.990Z,2384.00
2024-03-12T11:42:31.011Z,2378.00
2024-03-12T11:43:30.924Z,2374.00
2024-03-12T11:44:30.926Z,2377.00
2024-03-12T11:45:30.901Z,2369.00
2024-03-12T11:46:30.886Z,2356.00
2024-03-12T11:47:30.952Z,2346.00
2024-03-12T11:48:30.864Z,2337.00
2024-03-12T11:49:30.832Z,2337.00
2024-03-12T11:50:30.820Z,2326.00
2024-03-12T11:51:30.868Z,2329.00
2024-03-12T11:52:30.884Z,2320.00
2024-03-12T11:53:31.034Z,2319.00
2024-03-12T11:54:30.957Z,2318.00
2024-03-12T11:55:30.969Z,2309.00
2024-03-12T11:56:30.984Z,2306.00
2024-03-12T11:57:31.368Z,2304.00
2024-03-12T11:58:31.092Z,2294.00
2024-03-12T11:59:31.102Z,2291.00
2024-03-12T12:00:31.277Z,2278.00
2024-03-12T12:01:31.288Z,2279.00
2024-03-12T12:02:31.157Z,2282.00
2024-03-12T12:03:31.214Z,2263.00
2024-03-12T12:04:31.229Z,2269.00
2024-03-12T12:05:31.237Z,2259.00
2024-03-12T12:06:31.325Z,2253.00
2024-03-12T12:07:31.371Z,2255.00
2024-03-12T12:08:31.493Z,2255.00
2024-03-12T12:09:31.387Z,2253.00
2024-03-12T12:10:31.385Z,2252.00
2024-03-12T12:11:31.421Z,2251.00
2024-03-12T12:12:31.419Z,2237.00
2024-03-12T12:13:31.424Z,2238.00
2024-03-12T12:14:31.398Z,2238.00
2024-03-12T12:15:31.412Z,2241.00
2024-03-12T12:16:31.381Z,2248.00
2024-03-12T12:17:31.380Z,2261.00
2024-03-12T12:18:31.357Z,2278.00
2024-03-12T12:19:35.547Z,2270.00
2024-03-12T12:20:32.297Z,2271.00
2024-03-12T12:21:31.348Z,2273.00